createdAt,value
2023-03-10T00:00:29.010Z,97684.00
2023-03-10T00:02:55.906Z,97666.00
2023-03-10T00:05:29.124Z,97655.00
2023-03-10T00:07:56.374Z,97674.00
2023-03-10T00:10:30.069Z,97677.00
2023-03-10T00:12:56.993Z,97674.00
2023-03-10T00:15:30.026Z,97669.00
2023-03-10T00:17:56.981Z,97662.00
2023-03-10T00:20:23.967Z,97677.00
2023-03-10T00:22:57.050Z,97661.00
2023-03-10T00:25:23.981Z,97661.00
2023-03-10T00:27:57.041Z,97656.00
2023-03-10T00:30:24.011Z,97668.00
2023-03-10T00:32:57.060Z,97671.00
2023-03-10T00:35:24.016Z,97662.00
2023-03-10T00:37:57.083Z,97672.00
2023-03-10T00:40:30.074Z,97671.00
2023-03-10T00:42:57.115Z,97673.00
2023-03-10T00:45:30.024Z,97676.00
2023-03-10T00:48:03.877Z,97672.00
2023-03-10T00:50:37.118Z,97660.00
2023-03-10T00:53:03.965Z,97666.00
2023-03-10T00:55:37.077Z,97669.00
2023-03-10T00:58:04.001Z,97664.00
2023-03-10T01:00:30.946Z,97674.00
2023-03-10T01:03:06.098Z,97673.00
2023-03-10T01:05:33.117Z,97672.00
2023-03-10T01:08:06.039Z,97651.00
2023-03-10T01:10:39.074Z,97664.00
2023-03-10T01:13:05.963Z,97642.00
2023-03-10T01:15:32.854Z,97653.00
2023-03-10T01:18:06.092Z,97639.00
2023-03-10T01:20:40.096Z,97642.00
2023-03-10T01:23:07.775Z,97613.00
2023-03-10T01:25:34.637Z,97624.00
2023-03-10T01:28:08.109Z,97633.00
2023-03-10T01:30:35.088Z,97627.00
2023-03-10T01:33:08.073Z,97635.00
2023-03-10T01:35:35.120Z,97627.00
2023-03-10T01:38:02.305Z,97631.00
2023-03-10T01:40:36.090Z,97635.00
2023-03-10T01:43:28.140Z,97625.00
2023-03-10T01:45:55.034Z,97630.00
2023-03-10T01:48:28.124Z,97629.00
2023-03-10T01:50:55.052Z,97633.00
2023-03-10T01:53:22.004Z,97624.00
2023-03-10T01:55:59.127Z,97604.00
2023-03-10T01:58:29.234Z,97630.00
2023-03-10T02:00:56.202Z,97620.00
2023-03-10T02:03:37.095Z,97617.00
2023-03-10T02:06:14.718Z,97598.00
2023-03-10T02:08:52.086Z,97597.00
2023-03-10T02:11:19.019Z,97594.00
2023-03-10T02:13:52.135Z,97564.00
2023-03-10T02:16:19.066Z,97565.00
2023-03-10T02:18:47.540Z,97546.00
2023-03-10T02:21:42.147Z,97561.00
2023-03-10T02:24:29.586Z,97554.00
2023-03-10T02:27:09.148Z,97559.00
2023-03-10T02:29:59.251Z,97568.00
2023-03-10T02:32:34.128Z,97575.00
2023-03-10T02:35:08.136Z,97565.00
2023-03-10T02:37:42.160Z,97555.00
2023-03-10T02:40:46.155Z,97574.00
2023-03-10T02:43:33.177Z,97571.00
2023-03-10T02:46:10.216Z,97572.00
2023-03-10T02:48:38.075Z,97571.00
2023-03-10T02:51:16.123Z,97569.00
2023-03-10T02:53:43.010Z,97548.00
2023-03-10T02:56:16.121Z,97554.00
2023-03-10T02:58:42.998Z,97563.00
2023-03-10T03:01:09.965Z,97560.00
2023-03-10T03:03:43.122Z,97558.00
2023-03-10T03:06:10.207Z,97549.00
2023-03-10T03:08:44.122Z,97554.00
2023-03-10T03:11:17.148Z,97552.00
2023-03-10T03:13:44.022Z,97546.00
2023-03-10T03:16:18.324Z,97539.00
2023-03-10T03:18:52.138Z,97540.00
2023-03-10T03:21:26.145Z,97536.00
2023-03-10T03:23:53.044Z,97539.00
2023-03-10T03:26:29.172Z,97522.00
2023-03-10T03:28:56.084Z,97518.00
2023-03-10T03:31:31.258Z,97533.00
2023-03-10T03:33:58.235Z,97518.00
2023-03-10T03:36:32.163Z,97513.00
2023-03-10T03:38:59.014Z,97495.00
2023-03-10T03:41:32.139Z,97500.00
2023-03-10T03:43:59.165Z,97470.00
2023-03-10T03:46:32.285Z,97470.00
2023-03-10T03:49:06.166Z,97471.00
2023-03-10T03:51:39.153Z,97463.00
2023-03-10T03:54:12.186Z,97458.00
2023-03-10T03:56:39.146Z,97451.00
2023-03-10T03:59:12.199Z,97447.00
2023-03-10T04:01:39.121Z,97434.00
2023-03-10T04:04:06.011Z,97438.00
2023-03-10T04:06:39.148Z,97454.00
2023-03-10T04:09:12.150Z,97467.00
2023-03-10T04:11:39.117Z,97462.00
2023-03-10T04:14:12.156Z,97462.00
2023-03-10T04:16:45.156Z,97468.00
2023-03-10T04:19:18.151Z,97479.00
2023-03-10T04:21:45.056Z,97480.00
2023-03-10T04:24:11.965Z,97437.00
2023-03-10T04:26:45.207Z,97471.00
2023-03-10T04:29:12.285Z,97451.00
2023-03-10T04:31:53.088Z,97480.00
2023-03-10T04:34:29.968Z,97478.00
2023-03-10T04:37:03.195Z,97462.00
2023-03-10T04:39:36.184Z,97485.00
2023-03-10T04:42:03.423Z,97477.00
2023-03-10T04:44:37.187Z,97466.00
2023-03-10T04:47:04.372Z,97459.00
2023-03-10T04:49:38.174Z,97463.00
2023-03-10T04:52:05.283Z,97477.00
2023-03-10T04:54:39.210Z,97469.00
2023-03-10T04:57:06.162Z,97454.00
2023-03-10T04:59:33.036Z,97454.00
2023-03-10T05:02:06.387Z,97452.00
2023-03-10T05:04:33.333Z,97428.00
2023-03-10T05:07:07.170Z,97446.00
2023-03-10T05:09:44.208Z,97438.00
2023-03-10T05:12:17.229Z,97432.00
2023-03-10T05:14:44.200Z,97427.00
2023-03-10T05:17:18.224Z,97414.00
2023-03-10T05:19:45.128Z,97393.00
2023-03-10T05:22:18.192Z,97378.00
2023-03-10T05:24:45.100Z,97394.00
2023-03-10T05:27:18.175Z,97390.00
2023-03-10T05:29:45.172Z,97396.00
2023-03-10T05:32:18.224Z,97385.00
2023-03-10T05:34:45.170Z,97403.00
2023-03-10T05:37:18.234Z,97381.00
2023-03-10T05:39:45.169Z,97373.00
2023-03-10T05:42:19.188Z,97375.00
2023-03-10T05:44:46.113Z,97361.00
2023-03-10T05:47:19.256Z,97357.00
2023-03-10T05:49:52.236Z,97367.00
2023-03-10T05:52:19.134Z,97364.00
2023-03-10T05:54:52.190Z,97373.00
2023-03-10T05:57:19.199Z,97374.00
2023-03-10T05:59:52.182Z,97345.00
2023-03-10T06:02:32.274Z,97344.00
2023-03-10T06:04:59.211Z,97325.00
2023-03-10T06:07:32.235Z,97329.00
2023-03-10T06:09:59.281Z,97333.00
2023-03-10T06:12:33.197Z,97338.00
2023-03-10T06:15:00.247Z,97301.00
2023-03-10T06:17:33.211Z,97350.00
2023-03-10T06:20:00.118Z,97340.00
2023-03-10T06:22:28.551Z,97328.00
2023-03-10T06:25:03.280Z,97336.00
2023-03-10T06:27:31.531Z,97338.00
2023-03-10T06:30:05.224Z,97332.00
2023-03-10T06:32:33.660Z,97326.00
2023-03-10T06:35:07.242Z,97336.00
2023-03-10T06:37:34.261Z,97343.00
2023-03-10T06:40:07.251Z,97328.00
2023-03-10T06:42:34.327Z,97344.00
2023-03-10T06:45:01.224Z,97349.00
2023-03-10T06:47:34.268Z,97349.00
2023-03-10T06:50:08.202Z,97352.00
2023-03-10T06:52:35.251Z,97360.00
2023-03-10T06:55:09.300Z,97361.00
2023-03-10T06:57:36.280Z,97375.00
2023-03-10T07:00:10.256Z,97391.00
2023-03-10T07:02:40.259Z,97399.00
2023-03-10T07:05:14.227Z,97388.00
2023-03-10T07:07:41.248Z,97408.00
2023-03-10T07:10:15.290Z,97380.00
2023-03-10T07:12:42.490Z,97391.00
2023-03-10T07:15:10.270Z,97388.00
2023-03-10T07:17:44.305Z,97360.00
2023-03-10T07:20:12.464Z,97343.00
2023-03-10T07:22:39.366Z,97338.00
2023-03-10T07:25:13.210Z,97344.00
2023-03-10T07:27:40.110Z,97326.00
2023-03-10T07:30:14.266Z,97305.00
2023-03-10T07:32:41.345Z,97283.00
2023-03-10T07:35:15.276Z,97276.00
2023-03-10T07:37:42.218Z,97230.00
2023-03-10T07:40:16.292Z,97230.00
2023-03-10T07:42:43.804Z,97229.00
2023-03-10T07:45:17.266Z,97235.00
2023-03-10T07:47:44.219Z,97254.00
2023-03-10T07:50:18.301Z,97256.00
2023-03-10T07:52:45.412Z,97256.00
2023-03-10T07:55:12.354Z,97259.00
2023-03-10T07:57:46.271Z,97226.00
2023-03-10T08:00:16.173Z,97236.00
2023-03-10T08:02:43.249Z,97216.00
2023-03-10T08:05:18.325Z,97205.00
2023-03-10T08:07:45.272Z,97227.00
2023-03-10T08:10:19.265Z,97217.00
2023-03-10T08:12:46.148Z,97217.00
2023-03-10T08:15:19.278Z,97223.00
2023-03-10T08:17:46.182Z,97248.00
2023-03-10T08:20:20.316Z,97243.00
2023-03-10T08:22:47.214Z,97248.00
2023-03-10T08:25:20.331Z,97243.00
2023-03-10T08:27:47.214Z,97260.00
2023-03-10T08:30:14.391Z,97257.00
2023-03-10T08:32:47.334Z,97263.00
2023-03-10T08:35:14.371Z,97266.00
2023-03-10T08:37:43.180Z,97274.00
2023-03-10T08:40:20.276Z,97274.00
2023-03-10T08:42:48.582Z,97286.00
2023-03-10T08:45:22.337Z,97277.00
2023-03-10T08:47:49.269Z,97278.00
2023-03-10T08:50:23.310Z,97276.00
2023-03-10T08:52:50.163Z,97270.00
2023-03-10T08:55:17.096Z,97275.00
2023-03-10T08:57:50.332Z,97271.00
2023-03-10T09:00:24.297Z,97273.00
2023-03-10T09:02:57.379Z,97268.00
2023-03-10T09:05:24.330Z,97273.00
2023-03-10T09:07:57.329Z,97274.00
2023-03-10T09:10:24.218Z,97292.00
2023-03-10T09:13:11.254Z,97281.00
2023-03-10T09:15:40.693Z,97271.00
2023-03-10T09:18:15.345Z,97259.00
2023-03-10T09:20:42.615Z,97258.00
2023-03-10T09:23:19.920Z,97266.00
2023-03-10T09:25:53.330Z,97267.00
2023-03-10T09:28:20.248Z,97267.00
2023-03-10T09:30:53.342Z,97284.00
2023-03-10T09:33:21.151Z,97287.00
2023-03-10T09:36:06.558Z,97287.00
2023-03-10T09:38:34.598Z,97304.00
2023-03-10T09:41:57.353Z,97327.00
2023-03-10T09:45:04.398Z,97302.00
2023-03-10T09:47:50.020Z,97296.00
2023-03-10T09:50:36.421Z,97287.00
2023-03-10T09:53:52.906Z,97289.00
2023-03-10T09:56:30.360Z,97294.00
2023-03-10T09:59:31.392Z,97295.00
2023-03-10T10:01:58.330Z,97296.00
2023-03-10T10:04:43.416Z,97308.00
2023-03-10T10:07:26.366Z,97308.00
2023-03-10T10:10:16.378Z,97314.00
2023-03-10T10:12:49.345Z,97329.00
2023-03-10T10:15:19.248Z,97317.00
2023-03-10T10:18:23.984Z,97300.00
2023-03-10T10:21:10.152Z,97309.00
2023-03-10T10:23:57.390Z,97319.00
2023-03-10T10:26:25.131Z,97315.00
2023-03-10T10:29:02.436Z,97325.00
2023-03-10T10:31:38.403Z,97319.00
2023-03-10T10:34:07.827Z,97308.00
2023-03-10T10:36:58.420Z,97301.00
2023-03-10T10:39:31.434Z,97305.00
2023-03-10T10:42:35.437Z,97300.00
2023-03-10T10:45:22.431Z,97296.00
2023-03-10T10:47:50.760Z,97308.00
2023-03-10T10:50:29.441Z,97317.00
2023-03-10T10:53:17.577Z,97304.00
2023-03-10T10:55:52.416Z,97318.00
2023-03-10T10:58:34.795Z,97321.00
2023-03-10T11:01:14.415Z,97313.00
2023-03-10T11:03:48.442Z,97312.00
2023-03-10T11:06:24.406Z,97317.00
2023-03-10T11:08:57.421Z,97306.00
2023-03-10T11:11:36.427Z,97313.00
2023-03-10T11:14:34.492Z,97307.00
2023-03-10T11:17:19.189Z,97303.00
2023-03-10T11:20:28.416Z,97301.00
2023-03-10T11:23:26.430Z,97292.00
2023-03-10T11:26:07.954Z,97290.00
2023-03-10T11:29:00.489Z,97306.00
2023-03-10T11:31:33.510Z,97285.00
2023-03-10T11:34:38.468Z,97292.00
2023-03-10T11:37:17.056Z,97286.00
2023-03-10T11:40:28.480Z,97266.00
2023-03-10T11:43:28.684Z,97269.00
2023-03-10T11:46:02.510Z,97267.00
2023-03-10T11:48:38.508Z,97264.00
2023-03-10T11:51:05.802Z,97265.00
2023-03-10T11:53:46.511Z,97269.00
2023-03-10T11:56:14.819Z,97265.00
2023-03-10T11:59:02.426Z,97276.00
2023-03-10T12:01:46.387Z,97283.00
2023-03-10T12:04:50.434Z,97278.00
2023-03-10T12:07:59.771Z,97268.00
2023-03-10T12:10:33.496Z,97272.00
2023-03-10T12:13:07.476Z,97262.00
2023-03-10T12:15:35.858Z,97256.00
2023-03-10T12:18:06.816Z,97248.00
2023-03-10T12:20:41.510Z,97239.00
2023-03-10T12:23:11.682Z,97243.00
2023-03-10T12:25:45.493Z,97245.00
2023-03-10T12:28:31.298Z,97218.00
2023-03-10T12:31:45.532Z,97230.00
2023-03-10T12:34:20.585Z,97224.00
2023-03-10T12:36:54.499Z,97224.00
2023-03-10T12:39:28.646Z,97236.00
2023-03-10T12:42:06.473Z,97233.00
2023-03-10T12:45:13.704Z,97225.00
2023-03-10T12:48:10.472Z,97224.00
2023-03-10T12:51:02.125Z,97219.00
2023-03-10T12:53:45.517Z,97213.00
2023-03-10T12:56:12.455Z,97213.00
2023-03-10T12:58:54.522Z,97212.00
2023-03-10T13:01:23.508Z,97221.00
2023-03-10T13:03:59.583Z,97228.00
2023-03-10T13:06:47.153Z,97229.00
2023-03-10T13:09:40.479Z,97223.00
2023-03-10T13:12:17.748Z,97213.00
2023-03-10T13:14:51.480Z,97226.00
2023-03-10T13:17:25.019Z,97219.00
2023-03-10T13:20:14.512Z,97230.00
2023-03-10T13:22:53.493Z,97223.00
2023-03-10T13:25:20.458Z,97225.00
2023-03-10T13:30:42.023Z,97221.00
2023-03-10T13:33:37.377Z,97224.00
2023-03-10T13:36:34.130Z,97221.00
2023-03-10T13:39:10.542Z,97196.00
2023-03-10T13:41:40.368Z,97199.00
2023-03-10T13:44:23.550Z,97195.00
2023-03-10T13:47:01.356Z,97183.00
2023-03-10T13:49:38.517Z,97205.00
2023-03-10T13:52:08.027Z,97209.00
2023-03-10T13:54:43.548Z,97192.00
2023-03-10T13:57:36.540Z,97198.00
2023-03-10T14:00:04.503Z,97207.00
2023-03-10T14:02:40.529Z,97205.00
2023-03-10T14:05:08.312Z,97205.00
2023-03-10T14:07:43.514Z,97187.00
2023-03-10T14:10:13.191Z,97206.00
2023-03-10T14:12:57.515Z,97204.00
2023-03-10T14:15:29.848Z,97207.00
2023-03-10T14:18:15.569Z,97200.00
2023-03-10T14:20:46.329Z,97194.00
2023-03-10T14:23:25.577Z,97175.00
2023-03-10T14:25:54.750Z,97181.00
2023-03-10T14:28:38.570Z,97176.00
2023-03-10T14:31:11.570Z,97184.00
2023-03-10T14:33:39.612Z,97189.00
2023-03-10T14:36:15.619Z,97194.00
2023-03-10T14:38:42.866Z,97182.00
2023-03-10T14:41:16.528Z,97197.00
2023-03-10T14:43:43.414Z,97198.00
2023-03-10T14:46:17.735Z,97194.00
2023-03-10T14:48:44.809Z,97182.00
2023-03-10T14:51:34.917Z,97191.00
2023-03-10T14:54:02.464Z,97199.00
2023-03-10T14:56:35.579Z,97196.00
2023-03-10T14:59:08.548Z,97200.00
2023-03-10T15:01:35.525Z,97193.00
2023-03-10T15:04:02.426Z,97181.00
2023-03-10T15:06:35.554Z,97181.00
2023-03-10T15:09:02.443Z,97190.00
2023-03-10T15:11:37.569Z,97189.00
2023-03-10T15:14:24.547Z,97200.00
2023-03-10T15:16:51.426Z,97203.00
2023-03-10T15:19:30.586Z,97208.00
2023-03-10T15:21:57.548Z,97199.00
2023-03-10T15:24:30.563Z,97215.00
2023-03-10T15:26:57.428Z,97208.00
2023-03-10T15:29:30.607Z,97199.00
2023-03-10T15:31:57.620Z,97208.00
2023-03-10T15:34:31.617Z,97219.00
2023-03-10T15:36:58.634Z,97220.00
2023-03-10T15:39:33.788Z,97230.00
2023-03-10T15:42:01.528Z,97227.00
2023-03-10T15:44:34.571Z,97214.00
2023-03-10T15:47:07.553Z,97216.00
2023-03-10T15:49:34.403Z,97221.00
2023-03-10T15:52:07.593Z,97213.00
2023-03-10T15:54:34.625Z,97222.00
2023-03-10T15:57:09.735Z,97236.00
2023-03-10T15:59:52.643Z,97240.00
2023-03-10T16:02:19.530Z,97225.00
2023-03-10T16:04:52.828Z,97239.00
2023-03-10T16:07:19.754Z,97239.00
2023-03-10T16:09:53.637Z,97257.00
2023-03-10T16:12:20.560Z,97224.00
2023-03-10T16:14:47.452Z,97223.00
2023-03-10T16:17:20.657Z,97244.00
2023-03-10T16:19:54.722Z,97254.00
2023-03-10T16:22:21.615Z,97236.00
2023-03-10T16:24:48.596Z,97271.00
2023-03-10T16:27:22.609Z,97271.00
2023-03-10T16:29:49.469Z,97292.00
2023-03-10T16:32:22.724Z,97321.00
2023-03-10T16:34:49.618Z,97322.00
2023-03-10T16:37:22.636Z,97309.00
2023-03-10T16:39:52.357Z,97333.00
2023-03-10T16:42:25.816Z,97352.00
2023-03-10T16:44:56.088Z,97371.00
2023-03-10T16:47:29.643Z,97363.00
2023-03-10T16:50:03.471Z,97365.00
2023-03-10T16:52:36.875Z,97387.00
2023-03-10T16:55:04.066Z,97400.00
2023-03-10T16:57:33.292Z,97404.00
2023-03-10T17:00:06.684Z,97410.00
2023-03-10T17:02:33.628Z,97424.00
2023-03-10T17:05:00.564Z,97418.00
2023-03-10T17:07:38.277Z,97418.00
2023-03-10T17:10:07.754Z,97418.00
2023-03-10T17:12:41.710Z,97409.00
2023-03-10T17:15:15.301Z,97426.00
2023-03-10T17:17:48.708Z,97409.00
2023-03-10T17:20:16.105Z,97436.00
2023-03-10T17:22:49.611Z,97440.00
2023-03-10T17:25:16.469Z,97458.00
2023-03-10T17:27:49.635Z,97475.00
2023-03-10T17:30:16.827Z,97447.00
2023-03-10T17:32:50.698Z,97456.00
2023-03-10T17:35:24.660Z,97469.00
2023-03-10T17:37:51.561Z,97464.00
2023-03-10T17:40:24.704Z,97485.00
2023-03-10T17:42:51.607Z,97470.00
2023-03-10T17:45:18.510Z,97484.00
2023-03-10T17:47:51.664Z,97499.00
2023-03-10T17:50:18.836Z,97471.00
2023-03-10T17:52:47.867Z,97495.00
2023-03-10T17:55:21.714Z,97480.00
2023-03-10T17:57:48.617Z,97477.00
2023-03-10T18:00:22.707Z,97488.00
2023-03-10T18:02:49.769Z,97490.00
2023-03-10T18:05:23.718Z,97491.00
2023-03-10T18:07:50.655Z,97505.00
2023-03-10T18:10:24.701Z,97499.00
2023-03-10T18:12:51.669Z,97497.00
2023-03-10T18:15:24.677Z,97501.00
2023-03-10T18:17:57.725Z,97490.00
2023-03-10T18:20:31.670Z,97497.00
2023-03-10T18:23:04.716Z,97500.00
2023-03-10T18:25:31.653Z,97518.00
2023-03-10T18:28:04.720Z,97513.00
2023-03-10T18:30:31.697Z,97527.00
2023-03-10T18:33:04.753Z,97522.00
2023-03-10T18:35:31.692Z,97527.00
2023-03-10T18:38:13.727Z,97541.00
2023-03-10T18:40:41.107Z,97545.00
2023-03-10T18:43:14.755Z,97560.00
2023-03-10T18:45:41.669Z,97533.00
2023-03-10T18:48:08.590Z,97541.00
2023-03-10T18:50:41.735Z,97545.00
2023-03-10T18:53:09.382Z,97565.00
2023-03-10T18:55:42.688Z,97548.00
2023-03-10T18:58:09.771Z,97537.00
2023-03-10T19:00:43.711Z,97533.00
2023-03-10T19:03:10.674Z,97532.00
2023-03-10T19:05:38.116Z,97538.00
2023-03-10T19:08:11.757Z,97533.00
2023-03-10T19:10:45.695Z,97533.00
2023-03-10T19:13:18.723Z,97531.00
2023-03-10T19:15:52.409Z,97551.00
2023-03-10T19:18:25.727Z,97539.00
2023-03-10T19:21:00.569Z,97566.00
2023-03-10T19:23:34.755Z,97558.00
2023-03-10T19:26:02.515Z,97559.00
2023-03-10T19:28:29.362Z,97553.00
2023-03-10T19:31:02.810Z,97533.00
2023-03-10T19:33:29.730Z,97523.00
2023-03-10T19:36:01.876Z,97529.00
2023-03-10T19:38:35.763Z,97482.00
2023-03-10T19:41:03.966Z,97492.00
2023-03-10T19:43:37.797Z,97501.00
2023-03-10T19:46:07.170Z,97490.00
2023-03-10T19:48:34.292Z,97489.00
2023-03-10T19:51:07.782Z,97523.00
2023-03-10T19:53:34.998Z,97530.00
2023-03-10T19:56:04.251Z,97533.00
2023-03-10T19:58:37.732Z,97520.00
2023-03-10T20:01:11.782Z,97509.00
2023-03-10T20:03:38.825Z,97518.00
2023-03-10T20:06:12.742Z,97534.00
2023-03-10T20:08:45.739Z,97522.00
2023-03-10T20:11:12.725Z,97524.00
2023-03-10T20:13:39.704Z,97528.00
2023-03-10T20:16:13.779Z,97524.00
2023-03-10T20:18:47.748Z,97500.00
2023-03-10T20:21:14.626Z,97487.00
2023-03-10T20:23:47.804Z,97491.00
2023-03-10T20:26:15.013Z,97482.00
2023-03-10T20:28:41.976Z,97488.00
2023-03-10T20:31:15.751Z,97488.00
2023-03-10T20:33:48.866Z,97459.00
2023-03-10T20:36:16.086Z,97488.00
2023-03-10T20:38:43.592Z,97481.00
2023-03-10T20:41:18.764Z,97494.00
2023-03-10T20:43:45.876Z,97497.00
2023-03-10T20:46:19.862Z,97483.00
2023-03-10T20:48:49.097Z,97502.00
2023-03-10T20:51:22.784Z,97486.00
2023-03-10T20:53:55.968Z,97484.00
2023-03-10T20:56:31.427Z,97491.00
2023-03-10T20:58:58.615Z,97482.00
2023-03-10T21:01:31.807Z,97492.00
2023-03-10T21:03:58.755Z,97492.00
2023-03-10T21:06:32.768Z,97467.00
2023-03-10T21:08:59.694Z,97481.00
2023-03-10T21:11:26.580Z,97515.00
2023-03-10T21:13:59.818Z,97495.00
2023-03-10T21:16:32.871Z,97502.00
2023-03-10T21:18:59.903Z,97473.00
2023-03-10T21:21:33.828Z,97477.00
2023-03-10T21:24:02.121Z,97470.00
2023-03-10T21:26:36.148Z,97435.00
2023-03-10T21:29:03.839Z,97435.00
2023-03-10T21:31:36.791Z,97448.00
2023-03-10T21:34:03.867Z,97428.00
2023-03-10T21:36:31.558Z,97434.00
2023-03-10T21:39:04.828Z,97455.00
2023-03-10T21:41:31.799Z,97438.00
2023-03-10T21:44:05.869Z,97431.00
2023-03-10T21:46:32.861Z,97443.00
2023-03-10T21:49:06.841Z,97452.00
2023-03-10T21:51:34.001Z,97443.00
2023-03-10T21:54:07.920Z,97459.00
2023-03-10T21:56:41.895Z,97465.00
2023-03-10T21:59:08.884Z,97467.00
2023-03-10T22:01:35.834Z,97449.00
2023-03-10T22:04:09.900Z,97435.00
2023-03-10T22:06:36.871Z,97421.00
2023-03-10T22:09:10.819Z,97464.00
2023-03-10T22:11:37.731Z,97476.00
2023-03-10T22:14:04.633Z,97446.00
2023-03-10T22:16:37.813Z,97475.00
2023-03-10T22:19:10.848Z,97472.00
2023-03-10T22:21:37.743Z,97451.00
2023-03-10T22:24:13.905Z,97449.00
2023-03-10T22:26:40.876Z,97454.00
2023-03-10T22:29:13.843Z,97454.00
2023-03-10T22:31:40.896Z,97454.00
2023-03-10T22:34:13.808Z,97448.00
2023-03-10T22:36:46.836Z,97439.00
2023-03-10T22:39:13.683Z,97437.00
2023-03-10T22:41:46.810Z,97450.00
2023-03-10T22:44:19.832Z,97451.00
2023-03-10T22:46:47.205Z,97464.00
2023-03-10T22:49:20.815Z,97452.00
2023-03-10T22:51:47.725Z,97452.00
2023-03-10T22:54:20.858Z,97456.00
2023-03-10T22:56:47.721Z,97473.00
2023-03-10T22:59:14.633Z,97448.00
2023-03-10T23:01:47.871Z,97450.00
2023-03-10T23:04:14.858Z,97437.00
2023-03-10T23:06:47.860Z,97451.00
2023-03-10T23:09:14.760Z,97466.00
2023-03-10T23:11:47.825Z,97455.00
2023-03-10T23:14:15.147Z,97444.00
2023-03-10T23:16:48.858Z,97440.00
2023-03-10T23:19:16.093Z,97444.00
2023-03-10T23:21:49.887Z,97446.00
2023-03-10T23:24:16.811Z,97426.00
2023-03-10T23:26:49.840Z,97421.00
2023-03-10T23:29:16.722Z,97418.00
2023-03-10T23:31:43.632Z,97422.00
2023-03-10T23:34:16.842Z,97445.00
2023-03-10T23:36:43.722Z,97466.00
2023-03-10T23:39:16.851Z,97428.00
2023-03-10T23:41:43.721Z,97429.00
2023-03-10T23:44:10.605Z,97437.00
2023-03-10T23:46:43.884Z,97410.00
2023-03-10T23:49:10.751Z,97413.00
2023-03-10T23:51:43.867Z,97439.00
2023-03-10T23:54:10.733Z,97400.00
2023-03-10T23:56:43.907Z,97412.00
2023-03-10T23:59:10.781Z,97424.00
